Orange Hope — JD2027 — position and weather

sailwx.info

Track history (hours):
 
Tides and Currents Weather Stations Pressure Air Temp Water Temp Dewpoint Dewpoint Depression Visibility Wind Speed Wind Dir Waves Ship Positions

Orange Hope

Last reported at 2018-Jun-19 19:16 UTC. Time now 2018-Jun-19 20:06 UTC.
Position N 34°24' E 134°16'.

Length 180 m; draft 6.5 m.

Type: Passenger vessel. MMSI: 431501801.

Date/timePositionNaut miles runAvg speedWind from/ knotsBaromVisibWave heightAir tempDewpointWater temp
2018-Jun-19 19:16N 34°24' E 134°16'519.1
2018-Jun-19 19:01N 34°25' E 134°22'1019.1
2018-Jun-19 18:30N 34°29' E 134°32'1019.7
2018-Jun-19 18:00N 34°32' E 134°44'1121.2
2018-Jun-19 17:29N 34°36' E 134°56'919.2
2018-Jun-19 17:00N 34°36' E 135°07'918.8
2018-Jun-19 16:31N 34°38' E 135°18'4 7.6
2018-Jun-19 16:00N 34°42' E 135°17'0 0.0
2018-Jun-19 15:30N 34°42' E 135°17'0 0.0
2018-Jun-19 15:00N 34°42' E 135°17'0 0.4
2018-Jun-19 14:30N 34°42' E 135°17'612.1
2018-Jun-19 14:00N 34°36' E 135°16'917.6
2018-Jun-19 13:30N 34°35' E 135°05'815.0
2018-Jun-19 12:59N 34°36' E 134°56'918.2
2018-Jun-19 12:30N 34°32' E 134°46'918.8
2018-Jun-19 12:00N 34°28' E 134°36'918.8
2018-Jun-19 11:30N 34°25' E 134°25'9 0.6
2018-Jun-18 19:22N 34°24' E 134°14'718.6
2018-Jun-18 19:01N 34°25' E 134°22'1019.1
2018-Jun-18 18:31N 34°29' E 134°33'1019.5
2018-Jun-18 18:01N 34°32' E 134°44'1120.8
2018-Jun-18 17:30N 34°37' E 134°55'1019.3
2018-Jun-18 17:01N 34°36' E 135°07'918.9
2018-Jun-18 16:31N 34°38' E 135°18'4 7.8
2018-Jun-18 16:00N 34°42' E 135°17'0 0.0
2018-Jun-18 15:30N 34°42' E 135°17'0 0.0
2018-Jun-18 15:00N 34°42' E 135°17'0 0.4
2018-Jun-18 14:30N 34°42' E 135°17'611.4
2018-Jun-18 14:00N 34°36' E 135°16'1019.2
2018-Jun-18 13:30N 34°35' E 135°05'714.7
2018-Jun-18 13:00N 34°36' E 134°56'917.5
2018-Jun-18 12:30N 34°32' E 134°47'918.5
2018-Jun-18 12:00N 34°28' E 134°36'1019.1
2018-Jun-18 11:30N 34°24' E 134°26'  
2018-Jun-15 19:20N 34°24' E 134°14'618.8
2018-Jun-15 19:00N 34°25' E 134°21'1019.8
2018-Jun-15 18:31N 34°29' E 134°32'1020.8
2018-Jun-15 18:00N 34°33' E 134°44'1120.2
2018-Jun-15 17:27N 34°37' E 134°57'817.2
2018-Jun-15 17:00N 34°36' E 135°06'1019.8
2018-Jun-15 16:30N 34°38' E 135°18'4 7.7
2018-Jun-15 15:58N 34°42' E 135°17'0 0.0
2018-Jun-15 15:30N 34°42' E 135°17'0 0.0
2018-Jun-15 15:00N 34°42' E 135°17'0 0.8
2018-Jun-15 14:29N 34°42' E 135°18'713.5
2018-Jun-15 14:00N 34°36' E 135°15'918.7
2018-Jun-15 13:30N 34°36' E 135°03'815.8
2018-Jun-15 13:00N 34°35' E 134°54'817.2
2018-Jun-15 12:30N 34°32' E 134°44'918.6
2018-Jun-15 12:00N 34°27' E 134°34'1019.2
2018-Jun-15 11:30N 34°25' E 134°23'9 0.6
2018-Jun-14 19:25N 34°25' E 134°12'819.4
2018-Jun-14 19:00N 34°26' E 134°22'1020.7
2018-Jun-14 18:30N 34°30' E 134°33'1020.4
2018-Jun-14 18:00N 34°33' E 134°45'919.0
2018-Jun-14 17:30N 34°36' E 134°56'816.7
2018-Jun-14 17:00N 34°36' E 135°06'1019.0
2018-Jun-14 16:30N 34°38' E 135°17'4 7.5
2018-Jun-14 16:00N 34°42' E 135°17'0 0.0
2018-Jun-14 15:30N 34°42' E 135°17'0 0.0
2018-Jun-14 15:00N 34°42' E 135°17'0 0.0
2018-Jun-14 14:30N 34°42' E 135°17'4 7.1
2018-Jun-14 14:00N 34°39' E 135°19'918.1
2018-Jun-14 13:31N 34°35' E 135°09'917.9
2018-Jun-14 13:00N 34°37' E 134°58'1019.2
2018-Jun-14 12:31N 34°33' E 134°47'1020.3
2018-Jun-14 12:01N 34°29' E 134°36'1121.1
2018-Jun-14 11:31N 34°25' E 134°24'1019.7
2018-Jun-14 11:00N 34°24' E 134°12'1 0.1
2018-Jun-13 19:27N 34°24' E 134°14'919.6
2018-Jun-13 19:00N 34°26' E 134°24'1020.0
2018-Jun-13 18:31N 34°30' E 134°35'1019.7
2018-Jun-13 18:00N 34°33' E 134°47'918.7
2018-Jun-13 17:30N 34°37' E 134°57'816.8
2018-Jun-13 17:01N 34°36' E 135°07'1019.5
2018-Jun-13 16:30N 34°38' E 135°18'4 7.6
2018-Jun-13 16:00N 34°42' E 135°17'0 0.0
2018-Jun-13 15:30N 34°42' E 135°17'0 0.0
2018-Jun-13 15:00N 34°42' E 135°17'0 0.2
2018-Jun-13 14:30N 34°42' E 135°17'611.2
2018-Jun-13 14:00N 34°36' E 135°16'1020.2
2018-Jun-13 13:30N 34°35' E 135°04'1018.4
2018-Jun-13 12:58N 34°35' E 134°52'919.5
2018-Jun-13 12:30N 34°30' E 134°42'1020.6
2018-Jun-13 12:00N 34°27' E 134°31'1120.4
2018-Jun-13 11:28N 34°24' E 134°18'4 0.2
2018-Jun-12 19:25N 34°24' E 134°14'819.2
2018-Jun-12 19:00N 34°26' E 134°23'1019.9
2018-Jun-12 18:30N 34°29' E 134°34'1019.8
2018-Jun-12 18:00N 34°33' E 134°46'1018.9
2018-Jun-12 17:30N 34°37' E 134°56'817.1
2018-Jun-12 17:00N 34°36' E 135°07'1019.5
2018-Jun-12 16:30N 34°38' E 135°18'4 8.1
2018-Jun-12 16:00N 34°42' E 135°17'0 0.0
2018-Jun-12 15:30N 34°42' E 135°17'0 0.0
2018-Jun-12 15:00N 34°42' E 135°17'0 0.0
2018-Jun-12 14:30N 34°42' E 135°17'5 9.3
2018-Jun-12 14:00N 34°37' E 135°18'1020.5
2018-Jun-12 13:31N 34°35' E 135°06'918.5
2018-Jun-12 13:00N 34°35' E 134°55'919.2
2018-Jun-12 12:31N 34°31' E 134°45'1019.5
2018-Jun-12 12:01N 34°28' E 134°34'1019.5
2018-Jun-12 11:31N 34°24' E 134°23'7 0.5
2018-Jun-11 19:28N 34°24' E 134°14'919.0
2018-Jun-11 19:00N 34°27' E 134°24'1019.5
2018-Jun-11 18:30N 34°30' E 134°35'1019.3
2018-Jun-11 18:00N 34°33' E 134°46'918.8
2018-Jun-11 17:30N 34°37' E 134°56'917.3
2018-Jun-11 17:00N 34°36' E 135°07'918.8
2018-Jun-11 16:30N 34°38' E 135°18'4 8.4
2018-Jun-11 16:01N 34°42' E 135°17'0 0.0
2018-Jun-11 15:30N 34°42' E 135°17'0 0.0
2018-Jun-11 15:01N 34°42' E 135°17'0 0.0
2018-Jun-11 14:30N 34°42' E 135°17'2 3.7
2018-Jun-11 14:00N 34°40' E 135°19'917.1
2018-Jun-11 13:30N 34°35' E 135°11'1020.0
2018-Jun-11 13:00N 34°37' E 134°59'1020.2
2018-Jun-11 12:30N 34°32' E 134°48'1020.1
2018-Jun-11 12:01N 34°28' E 134°37'1020.4
2018-Jun-11 11:30N 34°25' E 134°25'1020.1
2018-Jun-11 11:00N 34°24' E 134°13'  
Track history (hours):
 
Tides and Currents Weather Stations Pressure Air Temp Water Temp Dewpoint Dewpoint Depression Visibility Wind Speed Wind Dir Waves Ship Positions

Orange Hope

Last reported at 2018-Jun-19 19:16 UTC. Time now 2018-Jun-19 20:06 UTC.
Position N 34°24' E 134°16'.

Length 180 m; draft 6.5 m.

Type: Passenger vessel. MMSI: 431501801.

Date/timePositionNaut miles runAvg speedWind from/ knotsBaromVisibWave heightAir tempDewpointWater temp
2018-Jun-19 19:16N 34°24' E 134°16'519.1
2018-Jun-19 19:01N 34°25' E 134°22'1019.1
2018-Jun-19 18:30N 34°29' E 134°32'1019.7
2018-Jun-19 18:00N 34°32' E 134°44'1121.2
2018-Jun-19 17:29N 34°36' E 134°56'919.2
2018-Jun-19 17:00N 34°36' E 135°07'918.8
2018-Jun-19 16:31N 34°38' E 135°18'4 7.6
2018-Jun-19 16:00N 34°42' E 135°17'0 0.0
2018-Jun-19 15:30N 34°42' E 135°17'0 0.0
2018-Jun-19 15:00N 34°42' E 135°17'0 0.4
2018-Jun-19 14:30N 34°42' E 135°17'612.1
2018-Jun-19 14:00N 34°36' E 135°16'917.6
2018-Jun-19 13:30N 34°35' E 135°05'815.0
2018-Jun-19 12:59N 34°36' E 134°56'918.2
2018-Jun-19 12:30N 34°32' E 134°46'918.8
2018-Jun-19 12:00N 34°28' E 134°36'918.8
2018-Jun-19 11:30N 34°25' E 134°25'9 0.6
2018-Jun-18 19:22N 34°24' E 134°14'718.6
2018-Jun-18 19:01N 34°25' E 134°22'1019.1
2018-Jun-18 18:31N 34°29' E 134°33'1019.5
2018-Jun-18 18:01N 34°32' E 134°44'1120.8
2018-Jun-18 17:30N 34°37' E 134°55'1019.3
2018-Jun-18 17:01N 34°36' E 135°07'918.9
2018-Jun-18 16:31N 34°38' E 135°18'4 7.8
2018-Jun-18 16:00N 34°42' E 135°17'0 0.0
2018-Jun-18 15:30N 34°42' E 135°17'0 0.0
2018-Jun-18 15:00N 34°42' E 135°17'0 0.4
2018-Jun-18 14:30N 34°42' E 135°17'611.4
2018-Jun-18 14:00N 34°36' E 135°16'1019.2
2018-Jun-18 13:30N 34°35' E 135°05'714.7
2018-Jun-18 13:00N 34°36' E 134°56'917.5
2018-Jun-18 12:30N 34°32' E 134°47'918.5
2018-Jun-18 12:00N 34°28' E 134°36'1019.1
2018-Jun-18 11:30N 34°24' E 134°26'  
2018-Jun-15 19:20N 34°24' E 134°14'618.8
2018-Jun-15 19:00N 34°25' E 134°21'1019.8
2018-Jun-15 18:31N 34°29' E 134°32'1020.8
2018-Jun-15 18:00N 34°33' E 134°44'1120.2
2018-Jun-15 17:27N 34°37' E 134°57'817.2
2018-Jun-15 17:00N 34°36' E 135°06'1019.8
2018-Jun-15 16:30N 34°38' E 135°18'4 7.7
2018-Jun-15 15:58N 34°42' E 135°17'0 0.0
2018-Jun-15 15:30N 34°42' E 135°17'0 0.0
2018-Jun-15 15:00N 34°42' E 135°17'0 0.8
2018-Jun-15 14:29N 34°42' E 135°18'713.5
2018-Jun-15 14:00N 34°36' E 135°15'918.7
2018-Jun-15 13:30N 34°36' E 135°03'815.8
2018-Jun-15 13:00N 34°35' E 134°54'817.2
2018-Jun-15 12:30N 34°32' E 134°44'918.6
2018-Jun-15 12:00N 34°27' E 134°34'1019.2
2018-Jun-15 11:30N 34°25' E 134°23'9 0.6
2018-Jun-14 19:25N 34°25' E 134°12'819.4
2018-Jun-14 19:00N 34°26' E 134°22'1020.7
2018-Jun-14 18:30N 34°30' E 134°33'1020.4
2018-Jun-14 18:00N 34°33' E 134°45'919.0
2018-Jun-14 17:30N 34°36' E 134°56'816.7
2018-Jun-14 17:00N 34°36' E 135°06'1019.0
2018-Jun-14 16:30N 34°38' E 135°17'4 7.5
2018-Jun-14 16:00N 34°42' E 135°17'0 0.0
2018-Jun-14 15:30N 34°42' E 135°17'0 0.0
2018-Jun-14 15:00N 34°42' E 135°17'0 0.0
2018-Jun-14 14:30N 34°42' E 135°17'4 7.1
2018-Jun-14 14:00N 34°39' E 135°19'918.1
2018-Jun-14 13:31N 34°35' E 135°09'917.9
2018-Jun-14 13:00N 34°37' E 134°58'1019.2
2018-Jun-14 12:31N 34°33' E 134°47'1020.3
2018-Jun-14 12:01N 34°29' E 134°36'1121.1
2018-Jun-14 11:31N 34°25' E 134°24'1019.7
2018-Jun-14 11:00N 34°24' E 134°12'1 0.1
2018-Jun-13 19:27N 34°24' E 134°14'919.6
2018-Jun-13 19:00N 34°26' E 134°24'1020.0
2018-Jun-13 18:31N 34°30' E 134°35'1019.7
2018-Jun-13 18:00N 34°33' E 134°47'918.7
2018-Jun-13 17:30N 34°37' E 134°57'816.8
2018-Jun-13 17:01N 34°36' E 135°07'1019.5
2018-Jun-13 16:30N 34°38' E 135°18'4 7.6
2018-Jun-13 16:00N 34°42' E 135°17'0 0.0
2018-Jun-13 15:30N 34°42' E 135°17'0 0.0
2018-Jun-13 15:00N 34°42' E 135°17'0 0.2
2018-Jun-13 14:30N 34°42' E 135°17'611.2
2018-Jun-13 14:00N 34°36' E 135°16'1020.2
2018-Jun-13 13:30N 34°35' E 135°04'1018.4
2018-Jun-13 12:58N 34°35' E 134°52'919.5
2018-Jun-13 12:30N 34°30' E 134°42'1020.6
2018-Jun-13 12:00N 34°27' E 134°31'1120.4
2018-Jun-13 11:28N 34°24' E 134°18'4 0.2
2018-Jun-12 19:25N 34°24' E 134°14'819.2
2018-Jun-12 19:00N 34°26' E 134°23'1019.9
2018-Jun-12 18:30N 34°29' E 134°34'1019.8
2018-Jun-12 18:00N 34°33' E 134°46'1018.9
2018-Jun-12 17:30N 34°37' E 134°56'817.1
2018-Jun-12 17:00N 34°36' E 135°07'1019.5
2018-Jun-12 16:30N 34°38' E 135°18'4 8.1
2018-Jun-12 16:00N 34°42' E 135°17'0 0.0
2018-Jun-12 15:30N 34°42' E 135°17'0 0.0
2018-Jun-12 15:00N 34°42' E 135°17'0 0.0
2018-Jun-12 14:30N 34°42' E 135°17'5 9.3
2018-Jun-12 14:00N 34°37' E 135°18'1020.5
2018-Jun-12 13:31N 34°35' E 135°06'918.5
2018-Jun-12 13:00N 34°35' E 134°55'919.2
2018-Jun-12 12:31N 34°31' E 134°45'1019.5
2018-Jun-12 12:01N 34°28' E 134°34'1019.5
2018-Jun-12 11:31N 34°24' E 134°23'7 0.5
2018-Jun-11 19:28N 34°24' E 134°14'919.0
2018-Jun-11 19:00N 34°27' E 134°24'1019.5
2018-Jun-11 18:30N 34°30' E 134°35'1019.3
2018-Jun-11 18:00N 34°33' E 134°46'918.8
2018-Jun-11 17:30N 34°37' E 134°56'917.3
2018-Jun-11 17:00N 34°36' E 135°07'918.8
2018-Jun-11 16:30N 34°38' E 135°18'4 8.4
2018-Jun-11 16:01N 34°42' E 135°17'0 0.0
2018-Jun-11 15:30N 34°42' E 135°17'0 0.0
2018-Jun-11 15:01N 34°42' E 135°17'0 0.0
2018-Jun-11 14:30N 34°42' E 135°17'2 3.7
2018-Jun-11 14:00N 34°40' E 135°19'917.1
2018-Jun-11 13:30N 34°35' E 135°11'1020.0
2018-Jun-11 13:00N 34°37' E 134°59'1020.2
2018-Jun-11 12:30N 34°32' E 134°48'1020.1
2018-Jun-11 12:01N 34°28' E 134°37'1020.4
2018-Jun-11 11:30N 34°25' E 134°25'1020.1
2018-Jun-11 11:00N 34°24' E 134°13'  

Dump ship's entire track history